Time;durP1;ratioP1;P1;durP2;ratioP2;P2;SDS_P1;SDS_P2;PMS_P1;PMS_P2;Temp;Humidity;BMP_temperature;BMP_pressure;BME280_temperature;BME280_humidity;BME280_pressure;Samples;Min_cycle;Max_cycle;Signal;HPM_P1;HPM_P2
2022/04/05 00:00:00;;;;;;;25.27;10.77;;;10.90;94.10;;;;;;5137175;28;20035;-65
2022/04/05 00:02:25;;;;;;;24.48;10.25;;;10.90;94.10;;;;;;5137127;28;20043;-65
2022/04/05 00:04:51;;;;;;;19.85;9.80;;;10.90;94.00;;;;;;5137022;28;20032;-65
2022/04/05 00:07:17;;;;;;;22.63;10.95;;;10.90;94.00;;;;;;5137012;28;20083;-65
2022/04/05 00:09:43;;;;;;;25.88;10.20;;;10.90;94.10;;;;;;5137005;28;20024;-65
2022/04/05 00:12:08;;;;;;;21.00;10.68;;;10.90;94.10;;;;;;5136923;28;20075;-65
2022/04/05 00:14:34;;;;;;;25.58;10.95;;;10.90;94.00;;;;;;5136875;28;20034;-65
2022/04/05 00:17:02;;;;;;;24.98;10.80;;;11.00;94.00;;;;;;5135798;28;20028;-66
2022/04/05 00:19:28;;;;;;;23.73;10.90;;;10.90;94.00;;;;;;5135825;28;20039;-65
2022/04/05 00:21:54;;;;;;;19.13;9.60;;;10.90;93.90;;;;;;5136831;28;20055;-65
2022/04/05 00:24:20;;;;;;;21.30;10.18;;;10.90;94.00;;;;;;5136600;28;20028;-65
2022/04/05 00:26:46;;;;;;;23.90;10.32;;;10.90;93.90;;;;;;5136667;28;20026;-65
2022/04/05 00:29:12;;;;;;;20.60;10.82;;;10.90;93.90;;;;;;5136524;28;20385;-65
2022/04/05 00:31:37;;;;;;;22.95;10.65;;;10.90;93.80;;;;;;5135569;28;20015;-65
2022/04/05 00:34:03;;;;;;;26.08;10.35;;;10.90;93.80;;;;;;5135298;28;20028;-67
2022/04/05 00:36:29;;;;;;;22.90;10.75;;;10.90;93.80;;;;;;5136429;28;20468;-65
2022/04/05 00:38:54;;;;;;;20.83;10.43;;;11.00;93.80;;;;;;5136430;28;20054;-65
2022/04/05 00:41:20;;;;;;;23.80;10.25;;;10.90;93.80;;;;;;5136409;28;20049;-65
2022/04/05 00:43:45;;;;;;;21.88;10.35;;;10.90;93.70;;;;;;5136392;28;20047;-66
2022/04/05 00:46:11;;;;;;;20.65;9.80;;;10.90;93.80;;;;;;5136302;28;20120;-65
2022/04/05 00:48:50;;;;;;;27.98;10.45;;;10.90;93.80;;;;;;5134741;28;20036;-65
2022/04/05 00:51:17;;;;;;;21.58;10.63;;;10.90;93.80;;;;;;5136158;28;20020;-65
2022/04/05 00:53:50;;;;;;;20.70;9.60;;;10.90;93.80;;;;;;5136174;28;20408;-65
2022/04/05 00:56:16;;;;;;;;;;;10.90;93.70;;;;;;5136709;28;20030;-66
2022/04/05 00:58:44;;;;;;;13.98;7.97;;;10.90;93.70;;;;;;5136012;28;20352;-66
2022/04/05 01:01:15;;;;;;;18.85;9.25;;;10.90;93.80;;;;;;5136024;28;20019;-66
2022/04/05 01:03:49;;;;;;;16.40;8.98;;;10.90;93.80;;;;;;5135966;28;20042;-66
2022/04/05 01:06:30;;;;;;;17.80;8.50;;;10.90;93.70;;;;;;5136008;28;20020;-66
2022/04/05 01:08:56;;;;;;;18.13;8.88;;;10.90;93.60;;;;;;5135932;28;20020;-65
2022/04/05 01:11:22;;;;;;;14.40;7.75;;;10.90;93.50;;;;;;5135823;28;20039;-66
2022/04/05 01:13:48;;;;;;;17.73;7.55;;;10.90;93.50;;;;;;5135874;28;20054;-66
2022/04/05 01:16:14;;;;;;;16.77;6.93;;;10.90;93.40;;;;;;5135706;28;20027;-66
2022/04/05 01:18:40;;;;;;;13.65;6.47;;;10.90;93.40;;;;;;5135693;28;20153;-65
2022/04/05 01:21:06;;;;;;;16.00;6.32;;;10.90;93.30;;;;;;5134554;28;20027;-65
2022/04/05 01:23:31;;;;;;;13.57;6.57;;;10.90;93.20;;;;;;5134405;28;20511;-65
2022/04/05 01:25:57;;;;;;;14.10;7.15;;;10.90;93.20;;;;;;5135526;28;20027;-66
2022/04/05 01:28:24;;;;;;;15.13;7.05;;;10.90;93.20;;;;;;5135361;28;20082;-66
2022/04/05 01:30:51;;;;;;;17.05;7.80;;;10.90;93.10;;;;;;5135466;27;20020;-66
2022/04/05 01:33:16;;;;;;;18.00;6.75;;;10.90;93.10;;;;;;5135362;28;20024;-66
2022/04/05 01:35:42;;;;;;;14.52;6.93;;;10.90;93.10;;;;;;5135180;28;20062;-66
2022/04/05 01:38:09;;;;;;;13.98;7.50;;;10.90;93.00;;;;;;5135324;28;20035;-66
2022/04/05 01:40:35;;;;;;;13.65;6.60;;;10.90;93.00;;;;;;5134239;28;20435;-66
2022/04/05 01:43:00;;;;;;;15.70;7.10;;;11.00;92.90;;;;;;5135085;28;20031;-66
2022/04/05 01:45:26;;;;;;;16.60;7.07;;;11.00;92.80;;;;;;5135108;28;20016;-66
2022/04/05 01:47:52;;;;;;;16.15;7.32;;;11.00;92.80;;;;;;5134105;28;20022;-66
2022/04/05 01:50:17;;;;;;;16.65;7.30;;;11.00;93.10;;;;;;5135038;28;20434;-66
2022/04/05 01:52:43;;;;;;;13.07;7.28;;;11.00;92.70;;;;;;5134985;28;20024;-65
2022/04/05 01:55:10;;;;;;;13.32;6.78;;;11.00;92.60;;;;;;5135041;28;20024;-66
2022/04/05 01:57:35;;;;;;;12.65;7.22;;;11.00;92.60;;;;;;5134876;28;20051;-66
2022/04/05 02:00:04;;;;;;;16.17;7.50;;;11.00;92.50;;;;;;5134300;28;20031;-66
2022/04/05 02:02:30;;;;;;;15.98;7.95;;;11.00;92.50;;;;;;5134697;28;20083;-66
2022/04/05 02:04:55;;;;;;;18.25;8.13;;;11.00;92.40;;;;;;5134650;28;20053;-66
2022/04/05 02:07:21;;;;;;;14.13;7.90;;;11.00;92.40;;;;;;5133765;28;20055;-66
2022/04/05 02:09:49;;;;;;;16.92;8.05;;;11.00;92.30;;;;;;5134652;28;20019;-66
2022/04/05 02:12:15;;;;;;;15.90;7.72;;;11.00;92.40;;;;;;5134653;28;20016;-66
2022/04/05 02:14:41;;;;;;;14.05;7.85;;;10.90;92.30;;;;;;5134623;28;20052;-66
2022/04/05 02:17:07;;;;;;;16.35;7.97;;;11.00;92.30;;;;;;5134568;28;20026;-66
2022/04/05 02:19:34;;;;;;;18.65;7.75;;;11.00;92.30;;;;;;5134488;28;20028;-66
2022/04/05 02:22:00;;;;;;;15.25;8.15;;;11.00;92.30;;;;;;5134446;28;20027;-65
2022/04/05 02:24:26;;;;;;;15.90;7.57;;;10.90;92.20;;;;;;5134278;28;20032;-66
2022/04/05 02:26:51;;;;;;;18.75;8.25;;;10.90;92.10;;;;;;5134358;28;20049;-66
2022/04/05 02:29:17;;;;;;;19.58;8.13;;;10.90;92.10;;;;;;5134318;28;20027;-66
2022/04/05 02:31:43;;;;;;;17.25;7.90;;;10.90;92.10;;;;;;5133239;28;20085;-66
2022/04/05 02:34:09;;;;;;;15.98;7.88;;;10.90;92.10;;;;;;5133083;28;20023;-67
2022/04/05 02:36:35;;;;;;;16.60;7.57;;;10.90;92.10;;;;;;5134394;27;20028;-65
2022/04/05 02:39:02;;;;;;;15.65;7.88;;;10.90;92.10;;;;;;5134158;28;20032;-65
2022/04/05 02:41:27;;;;;;;18.33;8.48;;;10.90;92.50;;;;;;5134114;28;20027;-65
2022/04/05 02:43:53;;;;;;;17.27;8.57;;;10.90;92.10;;;;;;5133987;28;20028;-66
2022/04/05 02:46:19;;;;;;;17.48;7.97;;;10.90;92.20;;;;;;5134057;28;20020;-66
2022/04/05 02:48:46;;;;;;;18.95;7.95;;;10.90;92.10;;;;;;5134037;28;20023;-65
2022/04/05 02:51:15;;;;;;;18.23;8.25;;;10.90;92.10;;;;;;5134034;28;20019;-66
2022/04/05 02:53:42;;;;;;;18.30;8.18;;;10.90;92.10;;;;;;5133949;28;20030;-66
2022/04/05 02:56:09;;;;;;;15.75;7.80;;;10.90;92.10;;;;;;5133957;28;20028;-65
2022/04/05 02:58:36;;;;;;;18.35;7.68;;;10.90;92.10;;;;;;5133894;28;20059;-66
2022/04/05 03:01:02;;;;;;;16.80;8.88;;;10.90;92.10;;;;;;5133921;28;20034;-66
2022/04/05 03:03:28;;;;;;;16.42;7.38;;;10.90;92.10;;;;;;5133774;28;20015;-66
2022/04/05 03:05:54;;;;;;;16.63;7.75;;;10.90;92.20;;;;;;5133824;28;20030;-66
2022/04/05 03:08:20;;;;;;;14.88;7.80;;;10.90;92.10;;;;;;5133785;28;20019;-66
2022/04/05 03:10:45;;;;;;;16.38;7.60;;;10.90;92.10;;;;;;5133755;28;20031;-66
2022/04/05 03:13:12;;;;;;;14.48;7.80;;;10.90;92.20;;;;;;5137143;28;20028;-66
2022/04/05 03:15:37;;;;;;;13.07;7.53;;;10.90;92.10;;;;;;5138046;28;20050;-66
2022/04/05 03:18:03;;;;;;;15.98;7.57;;;10.90;92.30;;;;;;5137001;28;20024;-65
2022/04/05 03:20:29;;;;;;;15.43;7.25;;;10.90;92.30;;;;;;5137926;28;20073;-66
2022/04/05 03:22:56;;;;;;;15.68;7.22;;;10.80;92.40;;;;;;5137946;28;20110;-66
2022/04/05 03:25:23;;;;;;;12.82;6.88;;;10.80;92.40;;;;;;5137912;28;20053;-65
2022/04/05 03:27:49;;;;;;;15.40;7.68;;;10.80;92.30;;;;;;5137782;28;20016;-66
2022/04/05 03:30:16;;;;;;;16.05;7.38;;;10.80;92.30;;;;;;5136745;28;20047;-66
2022/04/05 03:32:42;;;;;;;14.75;7.32;;;10.80;92.30;;;;;;5137723;28;20457;-66
2022/04/05 03:35:09;;;;;;;14.23;7.15;;;10.80;92.70;;;;;;5137503;28;20111;-66
2022/04/05 03:37:35;;;;;;;16.42;7.40;;;10.80;92.30;;;;;;5137632;28;20024;-66
2022/04/05 03:40:01;;;;;;;15.40;7.72;;;10.80;92.40;;;;;;5137604;28;20084;-66
2022/04/05 03:42:27;;;;;;;14.55;7.40;;;10.80;92.30;;;;;;5136481;28;20027;-66
2022/04/05 03:44:53;;;;;;;15.55;8.18;;;10.80;92.40;;;;;;5137438;28;20028;-66
2022/04/05 03:47:19;;;;;;;14.85;8.05;;;10.80;92.40;;;;;;5137465;28;20028;-66
2022/04/05 03:49:44;;;;;;;14.95;8.25;;;10.80;92.30;;;;;;5137398;28;20115;-66
2022/04/05 03:52:10;;;;;;;16.65;7.60;;;10.80;92.40;;;;;;5137354;28;20034;-66
2022/04/05 03:54:36;;;;;;;15.10;8.35;;;10.80;92.50;;;;;;5136343;28;20031;-66
2022/04/05 03:57:03;;;;;;;15.50;7.88;;;10.80;92.50;;;;;;5137272;28;20028;-66
2022/04/05 03:59:28;;;;;;;13.70;7.50;;;10.80;92.50;;;;;;5137191;28;20031;-66
2022/04/05 04:01:54;;;;;;;18.38;8.30;;;10.80;92.50;;;;;;5137257;28;20024;-66
2022/04/05 04:04:20;;;;;;;16.98;8.52;;;10.80;92.60;;;;;;5137039;28;20020;-66
2022/04/05 04:06:45;;;;;;;19.08;8.13;;;10.80;92.60;;;;;;5137083;28;20023;-66
2022/04/05 04:09:14;;;;;;;19.40;8.70;;;10.80;92.60;;;;;;5137031;28;20106;-66
2022/04/05 04:11:40;;;;;;;14.98;8.45;;;10.80;92.60;;;;;;5136972;28;20015;-66
2022/04/05 04:14:06;;;;;;;16.15;8.20;;;10.80;92.60;;;;;;5136961;28;20030;-66
2022/04/05 04:16:32;;;;;;;15.13;8.15;;;10.80;92.50;;;;;;5136885;28;20023;-66
2022/04/05 04:18:58;;;;;;;17.75;8.35;;;10.80;92.60;;;;;;5136784;28;20038;-66
2022/04/05 04:21:23;;;;;;;19.98;8.60;;;10.80;92.70;;;;;;5136808;28;20031;-66
2022/04/05 04:23:49;;;;;;;15.68;8.40;;;10.70;92.70;;;;;;5135688;28;20103;-66
2022/04/05 04:26:14;;;;;;;16.13;8.23;;;10.80;92.70;;;;;;5136829;28;20031;-66
2022/04/05 04:28:40;;;;;;;18.98;8.38;;;10.80;92.60;;;;;;5135527;28;20022;-66
2022/04/05 04:31:06;;;;;;;17.27;8.75;;;10.80;92.60;;;;;;5136596;28;20039;-66
2022/04/05 04:33:31;;;;;;;16.92;7.88;;;10.70;92.70;;;;;;5136570;28;20038;-66
2022/04/05 04:35:58;;;;;;;17.30;9.00;;;10.80;92.70;;;;;;5135278;28;20055;-66
2022/04/05 04:38:24;;;;;;;17.55;8.50;;;10.70;92.70;;;;;;5136503;28;20102;-66
2022/04/05 04:40:50;;;;;;;19.60;9.98;;;10.80;92.70;;;;;;5136432;28;20042;-66
2022/04/05 04:43:17;;;;;;;16.65;8.77;;;10.80;92.70;;;;;;5136339;28;20028;-66
2022/04/05 04:45:43;;;;;;;16.80;8.85;;;10.80;92.60;;;;;;5136325;27;20046;-65
2022/04/05 04:48:09;;;;;;;17.70;9.05;;;10.80;92.70;;;;;;5135249;28;20083;-65
2022/04/05 04:50:35;;;;;;;19.55;9.00;;;10.80;92.80;;;;;;5136263;28;20381;-65
2022/04/05 04:53:01;;;;;;;19.00;7.97;;;10.80;92.70;;;;;;5136180;28;20055;-66
2022/04/05 04:55:28;;;;;;;15.93;7.82;;;10.80;92.70;;;;;;5136160;28;20027;-65
2022/04/05 04:57:54;;;;;;;15.23;7.88;;;10.80;92.70;;;;;;5136104;28;20037;-65
2022/04/05 05:00:20;;;;;;;15.13;8.05;;;10.80;92.70;;;;;;5136075;28;20043;-65
2022/04/05 05:02:49;;;;;;;16.52;7.75;;;10.80;92.70;;;;;;5136096;28;20040;-66
2022/04/05 05:05:22;;;;;;;17.65;7.38;;;10.90;92.70;;;;;;5135887;28;20028;-65
2022/04/05 05:07:49;;;;;;;14.40;7.72;;;10.80;92.70;;;;;;5135945;28;20020;-66
2022/04/05 05:10:19;;;;;;;15.02;7.57;;;10.80;92.70;;;;;;5135846;28;20083;-66
2022/04/05 05:12:45;;;;;;;15.45;7.65;;;10.80;92.70;;;;;;5135823;28;20035;-66
2022/04/05 05:15:17;;;;;;;14.52;7.88;;;10.80;92.80;;;;;;5135746;28;20024;-66
2022/04/05 05:17:45;;;;;;;18.40;8.32;;;10.80;92.80;;;;;;5135800;28;20038;-66
2022/04/05 05:20:11;;;;;;;18.42;8.18;;;10.80;92.90;;;;;;5135685;28;20023;-65
2022/04/05 05:22:37;;;;;;;14.35;8.27;;;10.80;92.90;;;;;;5117703;28;20057;-66
2022/04/05 05:25:04;;;;;;;19.13;9.07;;;10.80;92.90;;;;;;5135498;28;20027;-65
2022/04/05 05:27:30;;;;;;;18.75;8.45;;;10.80;92.80;;;;;;5135532;28;20030;-66
2022/04/05 05:29:55;;;;;;;17.33;8.80;;;10.80;92.80;;;;;;5134411;28;20024;-66
2022/04/05 05:32:21;;;;;;;16.45;8.75;;;10.80;92.80;;;;;;5135398;27;20043;-66
2022/04/05 05:34:47;;;;;;;18.92;8.73;;;10.90;92.80;;;;;;5135018;28;20545;-65
2022/04/05 05:37:13;;;;;;;18.70;9.40;;;10.90;92.80;;;;;;5135326;28;20031;-65
2022/04/05 05:39:38;;;;;;;17.17;8.85;;;10.90;92.80;;;;;;5135247;28;20145;-66
2022/04/05 05:42:08;;;;;;;19.88;9.98;;;10.90;92.80;;;;;;5135156;28;20042;-66
2022/04/05 05:44:34;;;;;;;17.13;8.95;;;10.90;92.80;;;;;;5135114;28;20087;-66
2022/04/05 05:47:00;;;;;;;16.35;8.90;;;10.90;92.70;;;;;;5135167;28;20083;-65
2022/04/05 05:49:26;;;;;;;16.88;9.05;;;10.90;92.80;;;;;;5135008;28;20024;-65
2022/04/05 05:51:51;;;;;;;18.38;8.60;;;10.90;92.80;;;;;;5134057;28;20507;-66
2022/04/05 05:54:18;;;;;;;18.33;9.85;;;10.90;92.80;;;;;;5134919;28;20032;-65
2022/04/05 05:56:43;;;;;;;17.42;9.70;;;10.90;92.70;;;;;;5134959;27;20031;-65
2022/04/05 05:59:09;;;;;;;19.10;8.73;;;10.90;92.80;;;;;;5133831;28;20122;-65
2022/04/05 06:01:35;;;;;;;20.63;9.25;;;10.90;92.80;;;;;;5134818;28;20053;-65
2022/04/05 06:04:01;;;;;;;16.58;8.63;;;10.90;92.70;;;;;;5134861;28;20090;-65
2022/04/05 06:06:28;;;;;;;20.52;8.63;;;10.90;92.80;;;;;;5134694;28;20102;-65
2022/04/05 06:08:55;;;;;;;18.25;9.30;;;10.90;92.80;;;;;;5134723;28;20012;-65
2022/04/05 06:11:21;;;;;;;18.92;9.52;;;10.90;92.70;;;;;;5134707;28;20035;-65
2022/04/05 06:13:48;;;;;;;19.25;8.48;;;10.90;92.80;;;;;;5134713;27;20051;-65
2022/04/05 06:16:14;;;;;;;18.42;8.52;;;10.90;92.80;;;;;;5134532;28;20049;-65
2022/04/05 06:18:42;;;;;;;17.85;8.80;;;10.90;92.80;;;;;;5134514;28;20035;-66
2022/04/05 06:21:08;;;;;;;20.92;9.43;;;10.90;92.80;;;;;;5134451;27;20028;-66
2022/04/05 06:23:34;;;;;;;16.13;8.88;;;10.90;92.70;;;;;;5134379;28;20052;-65
2022/04/05 06:26:00;;;;;;;18.13;9.45;;;10.90;92.80;;;;;;5134425;28;20067;-66
2022/04/05 06:28:25;;;;;;;16.60;8.93;;;10.90;92.70;;;;;;5134239;28;20041;-66
2022/04/05 06:30:51;;;;;;;19.85;9.75;;;11.00;92.70;;;;;;5134166;28;20026;-66
2022/04/05 06:33:20;;;;;;;20.98;10.55;;;11.00;92.60;;;;;;5133234;28;20032;-65
2022/04/05 06:35:48;;;;;;;21.80;10.35;;;11.00;92.80;;;;;;5133938;28;20181;-65
2022/04/05 06:38:14;;;;;;;20.35;9.75;;;11.00;92.80;;;;;;5134100;28;20045;-66
2022/04/05 06:40:42;;;;;;;18.52;9.55;;;11.00;92.80;;;;;;5134131;28;20058;-66
2022/04/05 06:43:08;;;;;;;19.67;9.27;;;11.00;92.70;;;;;;5133930;28;20033;-66
2022/04/05 06:45:34;;;;;;;24.20;10.30;;;11.00;92.60;;;;;;5133988;28;20016;-66
2022/04/05 06:48:00;;;;;;;18.77;8.88;;;11.00;92.60;;;;;;5133568;28;20027;-66
2022/04/05 06:50:26;;;;;;;20.02;9.90;;;11.10;92.50;;;;;;5133991;28;20020;-66
2022/04/05 06:52:54;;;;;;;20.48;9.75;;;11.00;92.50;;;;;;5133922;28;20020;-66
2022/04/05 06:55:20;;;;;;;21.90;10.32;;;11.00;92.50;;;;;;5134010;28;20020;-66
2022/04/05 06:57:46;;;;;;;20.08;9.52;;;11.00;92.50;;;;;;5133843;28;20042;-66
2022/04/05 07:00:12;;;;;;;18.80;9.48;;;11.10;92.40;;;;;;5133817;28;20094;-66
2022/04/05 07:02:39;;;;;;;22.75;10.05;;;11.10;92.40;;;;;;5132463;28;20035;-66
2022/04/05 07:05:05;;;;;;;20.27;9.55;;;11.10;92.30;;;;;;5133604;28;20043;-66
2022/04/05 07:07:31;;;;;;;19.73;9.27;;;11.20;92.30;;;;;;5132618;28;20031;-66
2022/04/05 07:09:57;;;;;;;17.48;9.68;;;11.10;92.30;;;;;;5133668;28;20024;-66
2022/04/05 07:12:25;;;;;;;19.88;9.50;;;11.10;92.20;;;;;;5133678;28;20031;-68
2022/04/05 07:14:51;;;;;;;18.23;9.10;;;11.10;92.20;;;;;;5132716;28;20095;-65
2022/04/05 07:17:17;;;;;;;19.65;9.98;;;11.20;92.20;;;;;;5133684;28;20507;-65
2022/04/05 07:19:43;;;;;;;16.90;9.40;;;11.20;92.30;;;;;;5133612;28;20038;-65
2022/04/05 07:22:09;;;;;;;21.50;9.07;;;11.10;92.30;;;;;;5133600;28;20032;-65
2022/04/05 07:24:34;;;;;;;14.90;8.23;;;11.10;92.30;;;;;;5133503;28;20085;-66
2022/04/05 07:27:00;;;;;;;17.75;8.40;;;11.10;92.40;;;;;;5133560;28;20039;-65
2022/04/05 07:29:26;;;;;;;17.88;8.70;;;11.10;92.40;;;;;;5133433;28;20020;-65
2022/04/05 07:31:51;;;;;;;15.98;8.35;;;11.10;92.30;;;;;;5133547;28;20038;-65
2022/04/05 07:34:17;;;;;;;19.08;8.05;;;11.10;92.30;;;;;;5133483;28;20031;-65
2022/04/05 07:36:43;;;;;;;15.50;8.57;;;11.10;92.30;;;;;;5133287;28;20051;-65
2022/04/05 07:39:09;;;;;;;18.67;8.98;;;11.10;92.40;;;;;;5133428;28;20072;-65
2022/04/05 07:41:34;;;;;;;17.65;8.63;;;11.10;92.30;;;;;;5133332;28;20020;-65
2022/04/05 07:44:00;;;;;;;23.73;9.65;;;11.20;92.40;;;;;;5133335;28;20032;-65
2022/04/05 07:46:26;;;;;;;17.27;8.77;;;11.20;92.50;;;;;;5133356;28;20052;-65
2022/04/05 07:48:51;;;;;;;16.40;8.75;;;11.20;92.40;;;;;;5133324;28;20028;-65
2022/04/05 07:51:17;;;;;;;18.38;8.65;;;11.30;92.40;;;;;;5133254;28;20023;-65
2022/04/05 07:53:44;;;;;;;20.13;9.55;;;11.30;92.40;;;;;;5133327;28;20133;-65
2022/04/05 07:56:12;;;;;;;19.38;8.98;;;11.30;92.30;;;;;;5133267;28;20024;-65
2022/04/05 07:58:39;;;;;;;16.77;10.00;;;11.30;92.10;;;;;;5133790;28;20027;-66
2022/04/05 08:01:04;;;;;;;20.02;10.48;;;11.30;92.10;;;;;;5137186;28;20032;-66
2022/04/05 08:03:30;;;;;;;19.00;9.02;;;11.40;92.10;;;;;;5136079;28;20107;-66
2022/04/05 08:05:56;;;;;;;22.30;9.65;;;11.40;92.10;;;;;;5136995;28;20077;-66
2022/04/05 08:08:22;;;;;;;17.92;8.98;;;11.40;92.00;;;;;;5137010;28;20039;-66
2022/04/05 08:10:47;;;;;;;15.90;8.40;;;11.40;92.10;;;;;;5135912;28;20083;-66
2022/04/05 08:13:13;;;;;;;15.52;8.32;;;11.40;92.10;;;;;;5136101;28;20032;-66
2022/04/05 08:15:41;;;;;;;17.08;8.90;;;11.40;92.10;;;;;;5136857;28;20058;-66
2022/04/05 08:18:08;;;;;;;18.10;8.70;;;11.40;92.00;;;;;;5135701;28;20032;-66
2022/04/05 08:20:36;;;;;;;14.20;7.65;;;11.50;92.00;;;;;;5136796;28;20016;-66
2022/04/05 08:23:05;;;;;;;15.40;8.05;;;11.40;91.90;;;;;;5136731;28;20455;-66
2022/04/05 08:25:30;;;;;;;19.17;8.30;;;11.40;91.90;;;;;;5136577;28;20020;-65
2022/04/05 08:27:57;;;;;;;20.00;9.30;;;11.40;91.70;;;;;;5136546;28;20050;-66
2022/04/05 08:30:23;;;;;;;19.95;9.48;;;11.40;91.60;;;;;;5135621;28;20109;-66
2022/04/05 08:32:49;;;;;;;20.73;10.43;;;11.40;91.60;;;;;;5136522;28;20046;-66
2022/04/05 08:35:18;;;;;;;20.73;10.00;;;11.40;91.70;;;;;;5136163;28;20112;-66
2022/04/05 08:37:45;;;;;;;17.13;9.13;;;11.40;91.60;;;;;;5136466;28;20161;-66
2022/04/05 08:40:13;;;;;;;22.15;10.25;;;11.40;91.60;;;;;;5136416;28;20027;-66
2022/04/05 08:42:41;;;;;;;15.43;8.10;;;11.50;91.70;;;;;;5136316;28;20027;-66
2022/04/05 08:45:10;;;;;;;14.18;8.70;;;11.50;91.70;;;;;;5136208;28;20027;-66
2022/04/05 08:47:39;;;;;;;14.07;8.20;;;11.50;91.70;;;;;;5136292;28;20024;-66
2022/04/05 08:50:05;;;;;;;15.43;7.75;;;11.60;91.60;;;;;;5136262;28;20416;-66
2022/04/05 08:52:31;;;;;;;13.93;7.93;;;11.60;91.70;;;;;;5136176;28;20028;-66
2022/04/05 08:54:56;;;;;;;13.60;8.20;;;11.60;91.50;;;;;;5136101;28;20028;-66
2022/04/05 08:57:22;;;;;;;13.85;7.72;;;11.70;91.50;;;;;;5136041;28;20061;-66
2022/04/05 08:59:48;;;;;;;13.77;7.78;;;11.70;91.40;;;;;;5135984;28;20028;-66
2022/04/05 09:02:22;;;;;;;14.68;7.70;;;11.70;91.50;;;;;;5135938;28;20051;-66
2022/04/05 09:04:48;;;;;;;16.90;8.20;;;11.70;91.60;;;;;;5134821;28;20076;-66
2022/04/05 09:07:35;;;;;;;14.48;8.85;;;11.60;91.70;;;;;;5135857;28;20023;-66
2022/04/05 09:10:14;;;;;;;16.73;7.72;;;11.70;91.70;;;;;;5135518;27;20026;-66
2022/04/05 09:12:46;;;;;;;14.20;7.63;;;11.70;91.60;;;;;;5135804;28;20088;-66
2022/04/05 09:15:23;;;;;;;;;;;11.70;91.70;;;;;;5136151;28;20038;-66
2022/04/05 09:17:49;;;;;;;14.38;6.90;;;11.70;91.70;;;;;;5135778;28;19904;-66
2022/04/05 09:20:18;;;;;;;11.43;6.28;;;11.60;91.80;;;;;;5135757;28;20024;-66
2022/04/05 09:22:44;;;;;;;12.48;5.93;;;11.60;91.80;;;;;;5135543;28;20024;-66
2022/04/05 09:25:12;;;;;;;13.80;5.97;;;11.60;91.90;;;;;;5135372;28;20023;-66
2022/04/05 09:27:52;;;;;;;12.77;6.18;;;11.70;91.90;;;;;;5135360;28;20019;-66
2022/04/05 09:30:33;;;;;;;8.57;5.22;;;11.70;92.00;;;;;;5134637;28;20087;-65
2022/04/05 09:33:02;;;;;;;12.13;5.95;;;11.80;92.10;;;;;;5135440;28;20020;-66
2022/04/05 09:35:30;;;;;;;12.60;6.30;;;11.80;92.20;;;;;;5135167;28;20075;-66
2022/04/05 09:38:17;;;;;;;11.38;6.40;;;11.80;92.20;;;;;;5135370;28;20038;-66
2022/04/05 09:40:43;;;;;;;11.98;5.50;;;11.80;92.10;;;;;;5135318;28;20024;-66
2022/04/05 09:43:14;;;;;;;13.15;5.72;;;11.90;92.00;;;;;;5135100;28;20024;-65
2022/04/05 09:45:58;;;;;;;11.60;5.88;;;11.80;92.00;;;;;;5135258;27;20089;-66
2022/04/05 09:48:29;;;;;;;9.02;5.22;;;11.90;92.10;;;;;;5135033;28;20039;-66
2022/04/05 09:50:55;;;;;;;10.52;4.93;;;11.90;91.90;;;;;;5135069;28;20019;-66
2022/04/05 09:53:21;;;;;;;7.63;4.70;;;11.90;92.10;;;;;;5135102;28;20023;-66
2022/04/05 09:55:47;;;;;;;8.70;5.10;;;11.80;92.00;;;;;;5134880;28;20106;-66
2022/04/05 09:58:13;;;;;;;13.07;5.03;;;11.80;92.30;;;;;;5134559;28;20027;-66
2022/04/05 10:00:40;;;;;;;10.27;5.30;;;11.90;92.30;;;;;;5134875;28;20500;-66
2022/04/05 10:03:11;;;;;;;10.98;5.22;;;11.90;92.10;;;;;;5134793;28;20028;-66
2022/04/05 10:05:39;;;;;;;10.43;5.53;;;11.90;91.70;;;;;;5134823;28;20028;-66
2022/04/05 10:08:05;;;;;;;11.00;5.20;;;11.90;91.80;;;;;;5134703;28;20102;-65
2022/04/05 10:10:31;;;;;;;9.27;5.47;;;11.90;91.70;;;;;;5134688;28;20032;-66
2022/04/05 10:12:57;;;;;;;9.88;5.40;;;11.90;92.10;;;;;;5134618;27;20012;-66
2022/04/05 10:15:24;;;;;;;10.88;6.25;;;12.00;91.40;;;;;;5134535;28;20031;-66
2022/04/05 10:17:52;;;;;;;9.80;5.30;;;12.00;91.60;;;;;;5134542;28;20089;-66
2022/04/05 10:20:18;;;;;;;10.15;5.40;;;12.00;91.80;;;;;;5134480;28;20108;-66
2022/04/05 10:22:50;;;;;;;10.27;5.00;;;12.00;91.80;;;;;;5133717;28;20024;-66
2022/04/05 10:25:16;;;;;;;7.10;4.53;;;12.00;91.80;;;;;;5134423;28;20024;-66
2022/04/05 10:27:42;;;;;;;7.95;5.07;;;12.00;91.90;;;;;;5134220;28;20024;-66
2022/04/05 10:30:21;;;;;;;7.88;4.78;;;12.00;91.90;;;;;;5134352;28;20027;-65
2022/04/05 10:32:59;;;;;;;7.88;4.82;;;12.00;91.90;;;;;;5134479;28;20027;-66
2022/04/05 10:35:25;;;;;;;8.60;5.40;;;12.00;91.90;;;;;;5132932;28;20056;-66
2022/04/05 10:37:52;;;;;;;8.18;4.78;;;12.00;91.90;;;;;;5133225;28;20080;-66
2022/04/05 10:40:20;;;;;;;8.65;5.57;;;12.00;91.70;;;;;;5134320;28;20089;-66
2022/04/05 10:42:52;;;;;;;8.98;4.90;;;12.00;91.70;;;;;;5134099;28;20106;-66
2022/04/05 10:45:25;;;;;;;9.07;5.47;;;12.00;91.80;;;;;;5134086;28;20028;-66
2022/04/05 10:47:57;;;;;;;10.73;5.10;;;12.00;91.90;;;;;;5134075;28;20037;-66
2022/04/05 10:50:23;;;;;;;10.50;5.80;;;12.00;91.90;;;;;;5133003;28;20054;-66
2022/04/05 10:53:13;;;;;;;10.63;5.32;;;12.00;91.90;;;;;;5133999;28;20057;-66
2022/04/05 10:56:05;;;;;;;10.43;6.00;;;12.00;91.90;;;;;;5133995;28;20020;-66
2022/04/05 10:58:52;;;;;;;12.32;6.50;;;12.00;91.90;;;;;;5134120;28;20037;-66
2022/04/05 11:01:45;;;;;;;11.73;5.93;;;12.00;91.80;;;;;;5132976;28;20032;-66
2022/04/05 11:04:16;;;;;;;13.77;5.40;;;12.00;91.70;;;;;;5131074;28;20100;-66
2022/04/05 11:07:01;;;;;;;12.13;7.10;;;12.00;91.60;;;;;;5132818;28;20027;-66
2022/04/05 11:09:27;;;;;;;11.13;6.18;;;12.00;91.60;;;;;;5133806;28;20080;-65
2022/04/05 11:11:54;;;;;;;13.30;6.45;;;12.00;91.70;;;;;;5133766;28;20023;-65
2022/04/05 11:14:38;;;;;;;11.68;6.75;;;12.00;91.70;;;;;;5133704;28;20028;-66
2022/04/05 11:17:06;;;;;;;10.93;6.47;;;12.00;91.70;;;;;;5133715;28;20034;-65
2022/04/05 11:19:35;;;;;;;12.02;6.60;;;12.00;91.60;;;;;;5132687;28;20030;-66
2022/04/05 11:22:24;;;;;;;12.73;6.95;;;11.90;91.70;;;;;;5132627;28;20123;-66
2022/04/05 11:25:09;;;;;;;11.25;6.20;;;12.00;91.70;;;;;;5133528;28;20032;-66
2022/04/05 11:27:47;;;;;;;9.35;5.95;;;12.00;91.70;;;;;;5133491;28;20026;-66
2022/04/05 11:30:44;;;;;;;12.27;6.63;;;12.00;91.60;;;;;;5133676;28;20027;-66
2022/04/05 11:33:09;;;;;;;10.88;6.85;;;12.00;91.60;;;;;;5113311;28;20032;-66
2022/04/05 11:35:37;;;;;;;12.15;6.82;;;12.10;91.40;;;;;;5137558;28;20096;-66
2022/04/05 11:38:04;;;;;;;10.40;6.20;;;12.10;91.50;;;;;;5137693;27;20028;-66
2022/04/05 11:40:30;;;;;;;10.88;6.28;;;12.10;91.30;;;;;;5137657;28;20084;-66
2022/04/05 11:43:03;;;;;;;14.00;6.38;;;12.10;91.20;;;;;;5137577;28;20043;-66
2022/04/05 11:45:30;;;;;;;11.20;5.45;;;12.10;91.30;;;;;;5137463;28;20032;-66
2022/04/05 11:47:56;;;;;;;9.23;5.45;;;12.10;91.20;;;;;;5137471;28;20052;-66
2022/04/05 11:50:23;;;;;;;11.38;6.28;;;12.20;91.10;;;;;;5137420;28;20020;-66
2022/04/05 11:52:49;;;;;;;10.25;5.93;;;12.20;91.00;;;;;;5137364;28;20027;-66
2022/04/05 11:58:10;;;;;;;10.38;6.47;;;12.30;90.60;;;;;;5137508;28;20059;-66
2022/04/05 12:00:52;;;;;;;9.30;5.88;;;12.30;90.90;;;;;;5137353;28;20035;-66
2022/04/05 12:03:18;;;;;;;9.83;5.73;;;12.40;90.40;;;;;;5137124;27;20034;-66
2022/04/05 12:05:44;;;;;;;9.02;5.43;;;12.40;90.40;;;;;;5137157;28;20043;-66
2022/04/05 12:08:12;;;;;;;11.75;6.43;;;12.50;90.20;;;;;;5137080;28;20039;-66
2022/04/05 12:10:39;;;;;;;7.70;4.80;;;12.50;90.00;;;;;;5137029;28;20043;-66
2022/04/05 12:13:04;;;;;;;7.80;5.05;;;12.50;89.90;;;;;;5118981;28;20023;-66
2022/04/05 12:15:32;;;;;;;7.03;4.88;;;12.60;89.90;;;;;;5136975;28;20028;-66
2022/04/05 12:18:17;;;;;;;9.85;4.90;;;12.60;89.60;;;;;;5136889;28;20023;-66
2022/04/05 12:20:59;;;;;;;7.35;4.53;;;12.60;89.70;;;;;;5136811;28;20026;-66
2022/04/05 12:23:29;;;;;;;8.43;5.00;;;12.60;89.50;;;;;;5136756;28;20031;-66
2022/04/05 12:26:13;;;;;;;8.23;5.18;;;12.60;89.80;;;;;;5136789;28;20049;-66
2022/04/05 12:28:49;;;;;;;14.73;9.40;;;12.70;89.80;;;;;;5136659;28;20388;-66
2022/04/05 12:31:27;;;;;;;8.52;4.97;;;12.70;90.00;;;;;;5136717;28;20071;-66
2022/04/05 12:34:11;;;;;;;10.18;5.75;;;12.80;89.80;;;;;;5136673;28;20031;-66
2022/04/05 12:36:43;;;;;;;8.27;4.53;;;12.80;90.00;;;;;;5135379;28;20058;-66
2022/04/05 12:39:26;;;;;;;9.07;4.63;;;12.80;90.50;;;;;;5136577;28;20028;-66
2022/04/05 12:41:57;;;;;;;7.88;4.82;;;12.80;90.00;;;;;;5136473;28;20051;-66
2022/04/05 12:44:26;;;;;;;8.63;4.97;;;12.80;89.90;;;;;;5135645;27;20027;-66